Ana Sayfa
METAR-TAF:

METAR-TAF

Havaalanları :

Warrensburg, Missouri, Amerika Birleşik Devletleri

Enlem: 38-47-03N, Boylam: 093-48-10W, yükseklik: 243 m

Güncel hava durumu gözlemi

Rapor saat 17:15 UTC de 43 dakika önce yapıldı.
Rüzgar batı/güneybatıdan 8 kt, güneybatı ve kuzey/kuzeybatı arasında değişken
Sıcaklık 28°C
Nem 48%
Basınç 1016 hPa
Görüş mesafesi: 16.1 km
Açık gökyüzü

METAR: KRCM 121715Z AUTO 25008KT 214V334 10SM CLR 28/16 A2999 RMK AO2

Saat: 12:58 (17:58 UTC)


TAF: eksik

4.000'den fazla havaalanı için hava durumu gözlemleri ve tahminleri (METAR ve TAF raporları).

Kullanılabilir istasyonlar harita üzerinde sarı ve kırmızı noktalarla gösterilir.

İstasyonun adını görmek için fareyi noktanın üzerinde gezdirin.

Sonrasında hava gözlem ve tahminlerini görmek için tıklayın.

Haritayı değiştirmek için: yaklaştırmak için siyah artı işaretli yeşil düğmeye ve uzaklaştırmak için de eksi işaretli düğmeye hızla tıklayın; bitişik haritalar için yeşil okları kullanın.


METAR-TAF: